createdAt,value
2018-01-27T00:00:04.900Z,969.91
2018-01-27T00:15:08.168Z,969.91
2018-01-27T00:30:04.707Z,970.16
2018-01-27T00:45:05.925Z,970.24
2018-01-27T01:00:04.986Z,970.32
2018-01-27T01:15:05.412Z,970.4
2018-01-27T01:30:04.497Z,970.37
2018-01-27T01:45:04.709Z,970.4
2018-01-27T02:00:04.739Z,970.59
2018-01-27T02:15:05.206Z,970.72
2018-01-27T02:30:04.376Z,970.78
2018-01-27T02:45:04.461Z,970.81
2018-01-27T03:00:04.857Z,970.94
2018-01-27T03:15:05.262Z,970.67
2018-01-27T03:30:04.465Z,970.67
2018-01-27T03:45:04.493Z,970.83
2018-01-27T04:00:05.023Z,970.67
2018-01-27T04:15:05.080Z,970.75
2018-01-27T04:30:06.514Z,971.08
2018-01-27T04:45:07.897Z,971.37
2018-01-27T05:00:05.794Z,971.64
2018-01-27T05:15:04.975Z,971.75
2018-01-27T05:30:05.067Z,971.89
2018-01-27T05:45:04.950Z,972.18
2018-01-27T06:00:04.979Z,972.32
2018-01-27T06:15:04.828Z,972.94
2018-01-27T06:30:04.569Z,973.15
2018-01-27T06:45:04.474Z,973.69
2018-01-27T07:00:04.918Z,973.64
2018-01-27T07:15:05.400Z,973.91
2018-01-27T07:30:05.184Z,974.4
2018-01-27T07:45:05.002Z,974.4
2018-01-27T08:00:04.501Z,974.61
2018-01-27T08:15:04.545Z,974.61
2018-01-27T08:30:04.568Z,974.91
2018-01-27T08:45:08.209Z,974.99
2018-01-27T09:00:05.107Z,975.02
2018-01-27T09:15:05.626Z,974.94
2018-01-27T09:30:06.260Z,974.94
2018-01-27T09:45:05.115Z,974.67
2018-01-27T10:00:04.536Z,974.69
2018-01-27T10:15:04.451Z,974.42
2018-01-27T10:30:05.224Z,974.29
2018-01-27T10:45:04.687Z,973.86
2018-01-27T11:00:05.634Z,973.69
2018-01-27T11:15:04.505Z,973.64
2018-01-27T11:30:04.651Z,973.37
2018-01-27T11:45:05.360Z,973.86
2018-01-27T12:00:04.709Z,973.91
2018-01-27T12:15:11.228Z,974.23
2018-01-27T12:30:37.319Z,974.07
2018-01-27T12:45:05.601Z,974.21
2018-01-27T13:00:05.897Z,974.37
2018-01-27T13:15:05.366Z,974.29
2018-01-27T13:30:05.260Z,974.4
2018-01-27T13:45:05.385Z,974.45
2018-01-27T14:00:08.035Z,974.37
2018-01-27T14:15:08.291Z,974.4
2018-01-27T14:30:11.086Z,974.86
2018-01-27T14:45:05.514Z,974.88
2018-01-27T15:00:04.697Z,975.07
2018-01-27T15:15:05.123Z,975.21
2018-01-27T15:30:05.211Z,975.21
2018-01-27T15:45:04.710Z,975.42
2018-01-27T16:00:04.710Z,975.64
2018-01-27T16:15:05.090Z,976.04
2018-01-27T16:30:04.764Z,976.18
2018-01-27T16:45:05.218Z,976.37
2018-01-27T17:00:05.119Z,976.34
2018-01-27T17:15:04.600Z,976.88
2018-01-27T17:30:05.439Z,977.2
2018-01-27T17:45:20.601Z,977.47
2018-01-27T18:00:05.261Z,977.83
2018-01-27T18:15:04.719Z,978.07
2018-01-27T18:30:05.101Z,978.04
2018-01-27T18:45:05.262Z,978.07
2018-01-27T19:00:04.855Z,978.91
2018-01-27T19:15:07.515Z,978.69
2018-01-27T19:30:08.165Z,978.93
2018-01-27T19:45:05.377Z,978.8
2018-01-27T20:00:04.858Z,978.58
2018-01-27T20:15:05.254Z,978.83
2018-01-27T20:30:04.344Z,979.34
2018-01-27T20:45:04.806Z,979.37
2018-01-27T21:00:04.684Z,979.61
2018-01-27T21:15:05.095Z,979.91
2018-01-27T21:30:05.332Z,979.31
2018-01-27T21:45:04.790Z,979.58
2018-01-27T22:00:05.248Z,979.93
2018-01-27T22:15:04.643Z,979.58
2018-01-27T22:30:04.345Z,979.47
2018-01-27T22:45:04.718Z,979.26
2018-01-27T23:00:05.100Z,979.45
2018-01-27T23:15:17.183Z,979.18
2018-01-27T23:30:04.883Z,979.61
2018-01-27T23:45:05.094Z,980.31
